createdAt,value
2022-11-01T00:03:26.686Z,61.25
2022-11-01T00:08:29.213Z,55.28
2022-11-01T00:13:31.808Z,57.88
2022-11-01T00:18:34.032Z,55.17
2022-11-01T00:23:37.530Z,60.28
2022-11-01T00:28:39.972Z,57.60
2022-11-01T00:33:42.559Z,56.25
2022-11-01T00:38:44.743Z,59.50
2022-11-01T00:43:47.056Z,62.95
2022-11-01T00:48:50.037Z,65.70
2022-11-01T00:53:52.452Z,57.22
2022-11-01T00:58:54.661Z,54.60
2022-11-01T01:03:56.890Z,58.10
2022-11-01T01:09:00.917Z,56.30
2022-11-01T01:14:03.326Z,49.90
2022-11-01T01:19:05.700Z,53.95
2022-11-01T01:24:08.062Z,52.38
2022-11-01T01:29:10.378Z,57.30
2022-11-01T01:34:12.571Z,49.63
2022-11-01T01:39:14.998Z,48.13
2022-11-01T01:44:50.419Z,54.70
2022-11-01T01:50:12.697Z,53.28
2022-11-01T01:55:19.265Z,53.13
2022-11-01T02:00:21.795Z,50.22
2022-11-01T02:05:50.279Z,53.47
2022-11-01T02:10:52.929Z,50.90
2022-11-01T02:16:19.802Z,52.55
2022-11-01T02:21:24.741Z,57.38
2022-11-01T02:26:49.359Z,52.75
2022-11-01T02:32:21.140Z,51.08
2022-11-01T02:37:54.249Z,50.65
2022-11-01T02:43:05.693Z,53.50
2022-11-01T02:48:08.217Z,57.03
2022-11-01T02:53:11.237Z,48.47
2022-11-01T02:58:29.212Z,51.85
2022-11-01T03:03:36.425Z,42.97
2022-11-01T03:08:45.765Z,39.45
2022-11-01T03:13:54.126Z,38.22
2022-11-01T03:19:05.356Z,43.72
2022-11-01T03:24:30.367Z,39.15
2022-11-01T03:29:35.799Z,43.20
2022-11-01T03:34:39.739Z,49.25
2022-11-01T03:39:44.234Z,45.75
2022-11-01T03:44:51.194Z,35.75
2022-11-01T03:50:16.751Z,42.03
2022-11-01T03:55:20.499Z,49.67
2022-11-01T04:00:26.949Z,41.70
2022-11-01T04:05:31.655Z,45.88
2022-11-01T04:10:34.430Z,45.85
2022-11-01T04:15:55.499Z,48.03
2022-11-01T04:20:58.304Z,42.10
2022-11-01T04:26:00.600Z,45.20
2022-11-01T04:31:03.072Z,44.40
2022-11-01T04:36:09.079Z,49.15
2022-11-01T04:41:12.126Z,43.95
2022-11-01T04:46:14.816Z,41.33
2022-11-01T04:51:17.420Z,40.83
2022-11-01T04:56:19.568Z,42.20
2022-11-01T05:01:22.149Z,56.58
2022-11-01T05:06:24.586Z,39.00
2022-11-01T05:11:27.043Z,57.83
2022-11-01T05:16:29.289Z,37.33
2022-11-01T05:21:31.534Z,46.22
2022-11-01T05:26:34.166Z,47.85
2022-11-01T05:31:37.343Z,44.05
2022-11-01T05:36:40.196Z,39.15
2022-11-01T05:41:42.388Z,54.13
2022-11-01T05:46:44.911Z,44.13
2022-11-01T05:51:47.444Z,52.00
2022-11-01T05:56:49.985Z,46.33
2022-11-01T06:01:52.530Z,35.65
2022-11-01T06:06:54.813Z,40.00
2022-11-01T06:11:57.177Z,33.05
2022-11-01T06:16:59.532Z,42.83
2022-11-01T06:22:01.921Z,40.88
2022-11-01T06:27:07.433Z,42.60
2022-11-01T06:32:12.358Z,49.40
2022-11-01T06:37:14.631Z,42.00
2022-11-01T06:42:17.075Z,48.40
2022-11-01T06:47:19.441Z,55.28
2022-11-01T06:52:21.750Z,41.22
2022-11-01T06:57:24.332Z,45.72
2022-11-01T07:02:29.595Z,53.67
2022-11-01T07:07:32.333Z,45.13
2022-11-01T07:12:34.653Z,45.95
2022-11-01T07:17:37.020Z,61.00
2022-11-01T07:22:39.378Z,51.95
2022-11-01T07:27:41.806Z,47.33
2022-11-01T07:32:44.099Z,43.58
2022-11-01T07:37:46.318Z,62.10
2022-11-01T07:42:48.562Z,53.65
2022-11-01T07:47:51.100Z,57.88
2022-11-01T07:53:07.788Z,42.67
2022-11-01T07:58:11.189Z,40.55
2022-11-01T08:03:18.645Z,39.50
2022-11-01T08:08:21.065Z,45.45
2022-11-01T08:13:25.429Z,37.10
2022-11-01T08:18:27.666Z,34.85
2022-11-01T08:23:30.205Z,31.08
2022-11-01T08:28:33.516Z,30.27
2022-11-01T08:33:36.092Z,37.38
2022-11-01T08:38:38.442Z,32.72
2022-11-01T08:43:40.940Z,25.40
2022-11-01T08:48:43.360Z,39.20
2022-11-01T08:53:45.528Z,27.98
2022-11-01T08:58:49.880Z,25.70
2022-11-01T09:03:53.670Z,20.33
2022-11-01T09:08:56.535Z,23.05
2022-11-01T09:13:59.262Z,25.30
2022-11-01T09:19:02.261Z,15.23
2022-11-01T09:24:04.658Z,12.40
2022-11-01T09:29:06.948Z,12.35
2022-11-01T09:34:09.091Z,13.85
2022-11-01T09:39:11.503Z,25.45
2022-11-01T09:44:26.620Z,14.90
2022-11-01T09:49:33.700Z,19.98
2022-11-01T09:54:36.029Z,15.88
2022-11-01T09:59:41.335Z,14.55
2022-11-01T10:05:08.558Z,12.15
2022-11-01T10:10:32.487Z,10.88
2022-11-01T10:16:00.399Z,13.95
2022-11-01T10:21:09.135Z,8.63
2022-11-01T10:26:16.925Z,14.73
2022-11-01T10:31:24.216Z,11.07
2022-11-01T10:41:50.927Z,13.07
2022-11-01T10:46:53.979Z,10.57
2022-11-01T10:52:03.190Z,13.52
2022-11-01T10:57:10.968Z,11.05
2022-11-01T11:02:38.968Z,12.05
2022-11-01T11:07:41.990Z,9.48
2022-11-01T11:12:46.714Z,10.13
2022-11-01T11:17:55.147Z,12.65
2022-11-01T11:23:02.375Z,13.35
2022-11-01T11:28:06.092Z,13.20
2022-11-01T11:33:18.337Z,15.40
2022-11-01T11:38:42.026Z,9.82
2022-11-01T11:43:44.282Z,8.98
2022-11-01T11:48:52.905Z,17.27
2022-11-01T11:54:21.574Z,11.38
2022-11-01T11:59:30.049Z,10.33
2022-11-01T12:04:40.925Z,11.13
2022-11-01T12:09:48.725Z,9.52
2022-11-01T12:14:52.642Z,9.40
2022-11-01T12:20:14.448Z,8.95
2022-11-01T12:25:25.453Z,7.22
2022-11-01T12:30:31.432Z,8.88
2022-11-01T12:35:44.791Z,7.93
2022-11-01T12:40:51.000Z,12.35
2022-11-01T12:46:03.205Z,12.25
2022-11-01T12:51:12.779Z,18.40
2022-11-01T12:56:15.365Z,13.02
2022-11-01T13:01:24.879Z,18.58
2022-11-01T13:06:45.567Z,12.77
2022-11-01T13:12:25.837Z,11.85
2022-11-01T13:17:56.993Z,11.40
2022-11-01T13:23:12.044Z,9.25
2022-11-01T13:28:26.502Z,12.25
2022-11-01T13:33:40.690Z,9.23
2022-11-01T13:38:53.553Z,8.57
2022-11-01T13:44:03.361Z,11.70
2022-11-01T13:49:11.078Z,10.88
2022-11-01T13:54:32.932Z,7.33
2022-11-01T13:59:37.957Z,5.80
2022-11-01T14:04:40.802Z,11.82
2022-11-01T14:09:52.303Z,9.85
2022-11-01T14:14:54.565Z,11.43
2022-11-01T14:19:56.806Z,9.10
2022-11-01T14:25:24.654Z,10.77
2022-11-01T14:30:32.694Z,17.10
2022-11-01T14:35:38.128Z,19.05
2022-11-01T14:40:53.858Z,13.70
2022-11-01T14:46:14.676Z,15.63
2022-11-01T14:51:38.269Z,12.27
2022-11-01T14:56:41.282Z,13.40
2022-11-01T15:01:49.473Z,15.75
2022-11-01T15:06:52.525Z,17.65
2022-11-01T15:12:05.774Z,20.15
2022-11-01T15:17:23.278Z,17.10
2022-11-01T15:22:32.461Z,15.80
2022-11-01T15:27:45.191Z,11.57
2022-11-01T15:32:53.762Z,10.65
2022-11-01T15:37:57.738Z,13.63
2022-11-01T15:43:02.116Z,18.55
2022-11-01T15:48:12.845Z,25.80
2022-11-01T15:53:20.942Z,27.30
2022-11-01T15:58:32.609Z,32.40
2022-11-01T16:03:45.505Z,31.13
2022-11-01T16:08:53.861Z,38.17
2022-11-01T16:14:07.716Z,29.33
2022-11-01T16:19:28.305Z,34.55
2022-11-01T16:24:32.653Z,35.22
2022-11-01T16:29:51.771Z,36.60
2022-11-01T16:34:55.844Z,31.80
2022-11-01T16:40:00.955Z,38.63
2022-11-01T16:45:03.486Z,48.47
2022-11-01T16:50:06.098Z,34.35
2022-11-01T16:55:08.804Z,43.10
2022-11-01T17:00:14.272Z,38.97
2022-11-01T17:05:24.111Z,43.10
2022-11-01T17:10:26.673Z,34.47
2022-11-01T17:15:29.745Z,31.35
2022-11-01T17:20:32.714Z,51.38
2022-11-01T17:25:34.889Z,48.33
2022-11-01T17:30:37.555Z,48.90
2022-11-01T17:35:40.820Z,50.83
2022-11-01T17:40:46.138Z,50.78
2022-11-01T17:45:49.902Z,42.67
2022-11-01T17:50:52.264Z,42.25
2022-11-01T17:55:58.302Z,39.40
2022-11-01T18:01:00.550Z,57.00
2022-11-01T18:06:03.082Z,48.58
2022-11-01T18:11:32.811Z,46.47
2022-11-01T18:16:55.135Z,66.88
2022-11-01T18:22:06.151Z,73.47
2022-11-01T18:27:13.980Z,68.40
2022-11-01T18:32:22.723Z,64.70
2022-11-01T18:38:03.552Z,71.93
2022-11-01T18:43:09.038Z,72.22
2022-11-01T18:48:24.955Z,76.40
2022-11-01T18:53:29.983Z,100.45
2022-11-01T18:58:40.507Z,77.90
2022-11-01T19:03:43.013Z,74.75
2022-11-01T19:08:53.040Z,85.20
2022-11-01T19:13:59.752Z,81.78
2022-11-01T19:19:01.956Z,94.57
2022-11-01T19:24:17.019Z,79.03
2022-11-01T19:29:26.561Z,81.63
2022-11-01T19:39:38.627Z,72.70
2022-11-01T19:44:40.913Z,86.65
2022-11-01T19:49:43.520Z,77.03
2022-11-01T19:54:49.970Z,90.43
2022-11-01T19:59:53.612Z,75.80
2022-11-01T20:04:59.971Z,76.82
2022-11-01T20:10:02.824Z,76.05
2022-11-01T20:15:05.272Z,72.55
2022-11-01T20:20:08.062Z,73.65
2022-11-01T20:25:10.325Z,70.45
2022-11-01T20:30:12.810Z,88.75
2022-11-01T20:35:15.122Z,76.20
2022-11-01T20:40:17.651Z,70.47
2022-11-01T20:45:19.942Z,71.78
2022-11-01T20:50:22.208Z,77.88
2022-11-01T20:55:24.719Z,96.15
2022-11-01T21:00:27.632Z,98.85
2022-11-01T21:05:31.826Z,96.10
2022-11-01T21:10:40.504Z,73.93
2022-11-01T21:15:46.649Z,98.22
2022-11-01T21:20:50.366Z,92.60
2022-11-01T21:25:58.296Z,88.03
2022-11-01T21:31:20.776Z,77.28
2022-11-01T21:36:23.106Z,79.07
2022-11-01T21:41:45.586Z,78.10
2022-11-01T21:46:55.652Z,80.22
2022-11-01T21:52:01.064Z,80.07
2022-11-01T21:57:05.911Z,63.70
2022-11-01T22:02:11.813Z,66.60
2022-11-01T22:07:14.285Z,64.43
2022-11-01T22:12:17.082Z,72.20
2022-11-01T22:17:19.536Z,82.13
2022-11-01T22:22:21.754Z,65.65
2022-11-01T22:27:23.997Z,73.80
2022-11-01T22:32:26.168Z,67.97
2022-11-01T22:37:30.888Z,75.55
2022-11-01T22:42:33.098Z,65.93
2022-11-01T22:47:35.719Z,80.50
2022-11-01T22:52:41.785Z,62.22
2022-11-01T22:57:58.688Z,70.95
2022-11-01T23:03:20.336Z,71.25
2022-11-01T23:08:30.032Z,65.15
2022-11-01T23:13:51.803Z,68.63
2022-11-01T23:19:01.816Z,74.93
2022-11-01T23:24:04.509Z,71.15
2022-11-01T23:29:06.812Z,67.32
2022-11-01T23:34:11.135Z,67.93
2022-11-01T23:39:15.184Z,71.57
2022-11-01T23:44:31.317Z,71.63
2022-11-01T23:49:35.252Z,79.60
2022-11-01T23:54:43.392Z,71.20
2022-11-01T23:59:46.222Z,74.63
